Time;durP1;ratioP1;P1;durP2;ratioP2;P2;SDS_P1;SDS_P2;PMS_P1;PMS_P2;Temp;Humidity;BMP_temperature;BMP_pressure;BME280_temperature;BME280_humidity;BME280_pressure;Samples;Min_cycle;Max_cycle;Signal;HPM_P1;HPM_P2
2023/11/04 00:02:09;;;;;;;;;;;;;;;;;;5072544;28;19912;-67
2023/11/04 00:04:35;;;;;;;;;;;;;;;;;;5067101;28;19913;-67
2023/11/04 00:07:01;;;;;;;;;;;;;;;;;;5054764;28;20280;-67
2023/11/04 00:09:27;;;;;;;;;;;;;;;;;;5061917;28;19920;-66
2023/11/04 00:11:53;;;;;;;;;;;;;;;;;;5064770;28;20440;-66
2023/11/04 00:14:19;;;;;;;;;;;;;;;;;;5070359;28;19917;-68
2023/11/04 00:16:46;;;;;;;;;;;;;;;;;;5062896;28;20029;-68
2023/11/04 00:19:12;;;;;;;;;;;;;;;;;;5069234;28;20314;-67
2023/11/04 00:21:41;;;;;;;;;;;;;;;;;;5061047;28;19920;-68
2023/11/04 00:24:07;;;;;;;;;;;;;;;;;;5069748;28;19916;-67
2023/11/04 00:26:33;;;;;;;;;;;;;;;;;;5070670;28;20402;-68
2023/11/04 00:29:00;;;;;;;;;;;;;;;;;;5070303;28;19955;-68
2023/11/04 00:31:27;;;;;;;;;;;;;;;;;;5067930;28;20011;-67
2023/11/04 00:33:53;;;;;;;;;;;;;;;;;;5064063;28;20415;-68
2023/11/04 00:36:19;;;;;;;;;;;;;;;;;;5067129;28;19997;-68
2023/11/04 00:38:45;;;;;;;;;;;;;;;;;;5066597;28;19921;-67
2023/11/04 00:41:11;;;;;;;;;;;;;;;;;;5067541;28;19920;-68
2023/11/04 00:43:37;;;;;;;;;;;;;;;;;;5070606;28;19998;-68
2023/11/04 00:46:03;;;;;;;;;;;;;;;;;;5070200;28;19919;-68
2023/11/04 00:48:29;;;;;;;;;;;;;;;;;;5069315;28;19966;-68
2023/11/04 00:50:55;;;;;;;;;;;;;;;;;;5065451;28;19971;-68
2023/11/04 00:53:21;;;;;;;;;;;;;;;;;;5070681;28;19916;-68
2023/11/04 00:55:47;;;;;;;;;;;;;;;;;;5064606;28;19958;-68
2023/11/04 00:58:13;;;;;;;;;;;;;;;;;;5070214;28;19913;-68
2023/11/04 01:00:39;;;;;;;;;;;;;;;;;;5072672;28;19963;-68
2023/11/04 01:03:05;;;;;;;;;;;;;;;;;;5070397;28;19919;-68
2023/11/04 01:05:31;;;;;;;;;;;;;;;;;;5063308;28;20369;-68
2023/11/04 01:07:57;;;;;;;;;;;;;;;;;;5059461;28;20000;-68
2023/11/04 01:10:23;;;;;;;;;;;;;;;;;;5071177;28;19962;-68
2023/11/04 01:12:49;;;;;;;;;;;;;;;;;;5075614;28;20388;-68
2023/11/04 01:15:15;;;;;;;;;;;;;;;;;;5091676;28;19947;-68
2023/11/04 01:17:41;;;;;;;;;;;;;;;;;;5075770;28;19951;-68
2023/11/04 01:20:08;;;;;;;;;;;;;;;;;;5058795;28;20359;-68
2023/11/04 01:22:34;;;;;;;;;;;;;;;;;;5070255;28;20372;-65
2023/11/04 01:24:59;;;;;;;;;;;;;;;;;;5043307;28;19928;-62
2023/11/04 01:27:25;;;;;;;;;;;;;;;;;;5074060;28;19951;-63
2023/11/04 01:29:52;;;;;;;;;;;;;;;;;;5074380;28;19999;-62
2023/11/04 01:32:18;;;;;;;;;;;;;;;;;;5075289;28;19916;-62
2023/11/04 01:34:44;;;;;;;;;;;;;;;;;;5074405;28;20273;-62
2023/11/04 01:37:10;;;;;;;;;;;;;;;;;;5073838;28;19916;-62
2023/11/04 01:39:35;;;;;;;;;;;;;;;;;;5068941;28;20009;-62
2023/11/04 01:42:01;;;;;;;;;;;;;;;;;;5073775;28;20342;-64
2023/11/04 01:44:27;;;;;;;;;;;;;;;;;;5075435;28;20005;-62
2023/11/04 01:46:53;;;;;;;;;;;;;;;;;;5058875;28;19913;-62
2023/11/04 01:49:19;;;;;;;;;;;;;;;;;;5067693;28;19917;-64
2023/11/04 01:51:45;;;;;;;;;;;;;;;;;;5073140;28;19923;-63
2023/11/04 01:54:11;;;;;;;;;;;;;;;;;;5068901;28;19913;-63
2023/11/04 01:56:39;;;;;;;;;;;;;;;;;;5068633;28;19963;-62
2023/11/04 01:59:05;;;;;;;;;;;;;;;;;;5069651;28;19912;-62
2023/11/04 02:01:30;;;;;;;;;;;;;;;;;;5067555;28;19912;-64
2023/11/04 02:03:56;;;;;;;;;;;;;;;;;;5071674;28;19965;-63
2023/11/04 02:06:22;;;;;;;;;;;;;;;;;;5072900;28;20435;-62
2023/11/04 02:08:48;;;;;;;;;;;;;;;;;;5063018;28;20389;-62
2023/11/04 02:11:14;;;;;;;;;;;;;;;;;;5062611;28;19921;-62
2023/11/04 02:13:40;;;;;;;;;;;;;;;;;;5062459;28;19959;-62
2023/11/04 02:16:07;;;;;;;;;;;;;;;;;;5068791;28;20359;-62
2023/11/04 02:18:33;;;;;;;;;;;;;;;;;;5058541;28;19913;-64
2023/11/04 02:20:59;;;;;;;;;;;;;;;;;;5070448;28;19916;-62
2023/11/04 02:23:25;;;;;;;;;;;;;;;;;;5068641;28;19920;-62
2023/11/04 02:25:50;;;;;;;;;;;;;;;;;;5064204;28;19921;-62
2023/11/04 02:28:16;;;;;;;;;;;;;;;;;;5074566;28;19947;-62
2023/11/04 02:30:42;;;;;;;;;;;;;;;;;;5073872;28;19997;-62
2023/11/04 02:33:08;;;;;;;;;;;;;;;;;;5073955;28;19924;-63
2023/11/04 02:35:34;;;;;;;;;;;;;;;;;;5063952;28;20005;-62
2023/11/04 02:38:00;;;;;;;;;;;;;;;;;;5058072;28;20000;-64
2023/11/04 02:40:26;;;;;;;;;;;;;;;;;;5067966;28;19960;-64
2023/11/04 02:42:52;;;;;;;;;;;;;;;;;;5073218;28;19916;-62
2023/11/04 02:45:18;;;;;;;;;;;;;;;;;;5067538;28;19955;-62
2023/11/04 02:47:44;;;;;;;;;;;;;;;;;;5073746;28;19959;-62
2023/11/04 02:50:10;;;;;;;;;;;;;;;;;;5071120;28;20444;-62
2023/11/04 02:52:37;;;;;;;;;;;;;;;;;;5072947;28;20007;-62
2023/11/04 02:55:03;;;;;;;;;;;;;;;;;;5066923;28;20365;-62
2023/11/04 02:57:28;;;;;;;;;;;;;;;;;;5067596;28;19923;-63
2023/11/04 02:59:55;;;;;;;;;;;;;;;;;;5073241;28;19951;-64
2023/11/04 03:02:21;;;;;;;;;;;;;;;;;;5069730;28;19962;-63
2023/11/04 03:04:47;;;;;;;;;;;;;;;;;;5071525;28;20368;-62
2023/11/04 03:07:13;;;;;;;;;;;;;;;;;;5069203;28;19991;-62
2023/11/04 03:09:39;;;;;;;;;;;;;;;;;;5068851;28;19922;-62
2023/11/04 03:12:05;;;;;;;;;;;;;;;;;;5071939;28;19959;-62
2023/11/04 03:14:31;;;;;;;;;;;;;;;;;;5071442;28;19927;-61
2023/11/04 03:16:57;;;;;;;;;;;;;;;;;;5072238;28;20343;-62
2023/11/04 03:19:22;;;;;;;;;;;;;;;;;;5070729;28;19916;-62
2023/11/04 03:21:48;;;;;;;;;;;;;;;;;;5071028;28;19971;-63
2023/11/04 03:24:14;;;;;;;;;;;;;;;;;;5070314;28;20011;-63
2023/11/04 03:26:40;;;;;;;;;;;;;;;;;;5072759;28;19930;-62
2023/11/04 03:29:06;;;;;;;;;;;;;;;;;;5072980;28;20390;-62
2023/11/04 03:31:32;;;;;;;;;;;;;;;;;;5067247;28;19917;-62
2023/11/04 03:33:58;;;;;;;;;;;;;;;;;;5071764;28;20342;-65
2023/11/04 03:36:24;;;;;;;;;;;;;;;;;;5070680;28;19964;-62
2023/11/04 03:38:51;;;;;;;;;;;;;;;;;;5064874;28;19917;-62
2023/11/04 03:41:17;;;;;;;;;;;;;;;;;;5064353;28;19920;-62
2023/11/04 03:43:42;;;;;;;;;;;;;;;;;;5062113;28;19912;-64
2023/11/04 03:46:08;;;;;;;;;;;;;;;;;;5061602;28;19963;-64
2023/11/04 03:48:34;;;;;;;;;;;;;;;;;;5063413;28;19913;-64
2023/11/04 03:51:00;;;;;;;;;;;;;;;;;;5070561;28;20003;-64
2023/11/04 03:53:26;;;;;;;;;;;;;;;;;;5070623;28;19916;-64
2023/11/04 03:55:53;;;;;;;;;;;;;;;;;;5072106;28;20022;-65
2023/11/04 03:58:19;;;;;;;;;;;;;;;;;;5049607;28;19939;-64
2023/11/04 04:00:45;;;;;;;;;;;;;;;;;;5049793;28;19952;-64
2023/11/04 04:03:11;;;;;;;;;;;;;;;;;;5063567;28;19948;-64
2023/11/04 04:05:37;;;;;;;;;;;;;;;;;;5067268;28;19952;-64
2023/11/04 04:08:03;;;;;;;;;;;;;;;;;;5070558;28;19919;-64
2023/11/04 04:10:29;;;;;;;;;;;;;;;;;;5069785;28;19978;-64
2023/11/04 04:12:55;;;;;;;;;;;;;;;;;;5065696;28;20331;-64
2023/11/04 04:15:21;;;;;;;;;;;;;;;;;;5067854;28;19916;-64
2023/11/04 04:17:47;;;;;;;;;;;;;;;;;;5056572;28;19959;-65
2023/11/04 04:20:14;;;;;;;;;;;;;;;;;;5070333;28;19957;-64
2023/11/04 04:22:40;;;;;;;;;;;;;;;;;;5069953;28;19920;-64
2023/11/04 04:25:05;;;;;;;;;;;;;;;;;;5052583;28;20341;-64
2023/11/04 04:27:31;;;;;;;;;;;;;;;;;;5072177;28;19912;-64
2023/11/04 04:29:57;;;;;;;;;;;;;;;;;;5071277;28;19963;-64
2023/11/04 04:32:23;;;;;;;;;;;;;;;;;;5068110;28;21682;-64
2023/11/04 04:34:49;;;;;;;;;;;;;;;;;;5075843;28;19920;-64
2023/11/04 04:37:15;;;;;;;;;;;;;;;;;;5057567;28;19935;-69
2023/11/04 04:39:41;;;;;;;;;;;;;;;;;;5067105;28;20384;-65
2023/11/04 04:42:07;;;;;;;;;;;;;;;;;;5084562;28;20027;-64
2023/11/04 04:44:33;;;;;;;;;;;;;;;;;;5077745;28;20359;-64
2023/11/04 04:46:59;;;;;;;;;;;;;;;;;;5069720;28;19992;-64
2023/11/04 04:49:25;;;;;;;;;;;;;;;;;;5070005;28;19958;-65
2023/11/04 04:51:51;;;;;;;;;;;;;;;;;;5075176;28;19959;-64
2023/11/04 04:54:17;;;;;;;;;;;;;;;;;;5073804;28;19913;-67
2023/11/04 04:56:43;;;;;;;;;;;;;;;;;;5070996;28;20372;-67
2023/11/04 04:59:09;;;;;;;;;;;;;;;;;;5076410;28;19916;-66
2023/11/04 05:01:35;;;;;;;;;;;;;;;;;;5071123;28;19935;-67
2023/11/04 05:04:01;;;;;;;;;;;;;;;;;;5063607;28;19920;-67
2023/11/04 05:06:28;;;;;;;;;;;;;;;;;;5077947;28;19951;-66
2023/11/04 05:08:55;;;;;;;;;;;;;;;;;;5077534;28;19912;-67
2023/11/04 05:11:21;;;;;;;;;;;;;;;;;;5076030;28;20307;-67
2023/11/04 05:13:47;;;;;;;;;;;;;;;;;;5073638;28;19955;-67
2023/11/04 05:16:13;;;;;;;;;;;;;;;;;;5072954;28;19917;-67
2023/11/04 05:18:39;;;;;;;;;;;;;;;;;;5076371;28;20384;-67
2023/11/04 05:21:05;;;;;;;;;;;;;;;;;;5076010;28;20399;-67
2023/11/04 05:23:31;;;;;;;;;;;;;;;;;;5066784;28;19989;-67
2023/11/04 05:25:57;;;;;;;;;;;;;;;;;;5075249;28;19951;-66
2023/11/04 05:28:23;;;;;;;;;;;;;;;;;;5079148;28;19917;-67
2023/11/04 05:30:49;;;;;;;;;;;;;;;;;;5073058;28;19978;-66
2023/11/04 05:33:16;;;;;;;;;;;;;;;;;;5083264;28;19916;-67
2023/11/04 05:35:43;;;;;;;;;;;;;;;;;;5084033;28;19919;-66
2023/11/04 05:38:09;;;;;;;;;;;;;;;;;;5075680;28;19920;-66
2023/11/04 05:40:35;;;;;;;;;;;;;;;;;;5077308;28;20570;-67
2023/11/04 05:43:01;;;;;;;;;;;;;;;;;;5077161;28;19916;-67
2023/11/04 05:45:27;;;;;;;;;;;;;;;;;;5077011;28;20034;-67
2023/11/04 05:47:53;;;;;;;;;;;;;;;;;;5087978;28;19944;-67
2023/11/04 05:50:19;;;;;;;;;;;;;;;;;;5073333;28;19963;-66
2023/11/04 05:52:45;;;;;;;;;;;;;;;;;;5071572;28;19916;-67
2023/11/04 05:55:14;;;;;;;;;;;;;;;;;;5078404;28;19918;-66
2023/11/04 05:57:40;;;;;;;;;;;;;;;;;;5070646;28;19920;-67
2023/11/04 06:00:07;;;;;;;;;;;;;;;;;;5080210;28;19960;-67
2023/11/04 06:02:32;;;;;;;;;;;;;;;;;;5065062;28;20380;-66
2023/11/04 06:04:58;;;;;;;;;;;;;;;;;;5070661;28;20238;-67
2023/11/04 06:07:24;;;;;;;;;;;;;;;;;;5062290;28;19913;-67
2023/11/04 06:09:50;;;;;;;;;;;;;;;;;;5080126;28;20490;-67
2023/11/04 06:12:16;;;;;;;;;;;;;;;;;;5072368;28;19969;-67
2023/11/04 06:14:42;;;;;;;;;;;;;;;;;;5064861;28;19992;-66
2023/11/04 06:17:08;;;;;;;;;;;;;;;;;;5072006;28;19966;-66
2023/11/04 06:19:34;;;;;;;;;;;;;;;;;;5061715;28;20068;-66
2023/11/04 06:22:00;;;;;;;;;;;;;;;;;;5071898;28;20263;-66
2023/11/04 06:24:26;;;;;;;;;;;;;;;;;;5079582;28;19922;-66
2023/11/04 06:26:51;;;;;;;;;;;;;;;;;;5070690;28;19925;-66
2023/11/04 06:29:17;;;;;;;;;;;;;;;;;;5065676;28;20377;-66
2023/11/04 06:31:43;;;;;;;;;;;;;;;;;;5069298;28;20009;-67
2023/11/04 06:34:09;;;;;;;;;;;;;;;;;;5070694;28;20269;-67
2023/11/04 06:36:36;;;;;;;;;;;;;;;;;;5070685;28;19916;-67
2023/11/04 06:39:04;;;;;;;;;;;;;;;;;;5069267;28;19916;-66
2023/11/04 06:41:30;;;;;;;;;;;;;;;;;;5072288;28;20414;-67
2023/11/04 06:43:56;;;;;;;;;;;;;;;;;;5070585;28;19950;-67
2023/11/04 06:46:22;;;;;;;;;;;;;;;;;;5072561;28;19988;-68
2023/11/04 06:48:48;;;;;;;;;;;;;;;;;;5071468;28;19986;-67
2023/11/04 06:51:14;;;;;;;;;;;;;;;;;;5067682;28;20005;-67
2023/11/04 06:53:40;;;;;;;;;;;;;;;;;;5069650;28;20364;-67
2023/11/04 06:56:06;;;;;;;;;;;;;;;;;;5060876;28;19963;-67
2023/11/04 06:58:32;;;;;;;;;;;;;;;;;;5064707;28;19919;-67
2023/11/04 07:00:58;;;;;;;;;;;;;;;;;;5064527;28;19916;-67
2023/11/04 07:03:24;;;;;;;;;;;;;;;;;;5080589;28;20284;-67
2023/11/04 07:05:50;;;;;;;;;;;;;;;;;;5078012;28;20045;-67
2023/11/04 07:08:16;;;;;;;;;;;;;;;;;;5069208;28;19916;-67
2023/11/04 07:10:42;;;;;;;;;;;;;;;;;;5076721;28;19916;-67
2023/11/04 07:13:11;;;;;;;;;;;;;;;;;;5074217;28;20388;-68
2023/11/04 07:15:37;;;;;;;;;;;;;;;;;;5066998;28;20321;-68
2023/11/04 07:18:07;;;;;;;;;;;;;;;;;;5073032;28;19952;-68
2023/11/04 07:20:34;;;;;;;;;;;;;;;;;;5055814;28;19998;-68
2023/11/04 07:23:00;;;;;;;;;;;;;;;;;;5083814;28;19912;-68
2023/11/04 07:25:26;;;;;;;;;;;;;;;;;;5071013;28;20426;-68
2023/11/04 07:27:52;;;;;;;;;;;;;;;;;;5080212;28;19998;-68
2023/11/04 07:30:18;;;;;;;;;;;;;;;;;;5073697;28;19913;-68
2023/11/04 07:32:45;;;;;;;;;;;;;;;;;;5086212;28;19924;-68
2023/11/04 07:35:11;;;;;;;;;;;;;;;;;;5066708;28;19913;-67
2023/11/04 07:37:37;;;;;;;;;;;;;;;;;;5079080;28;19958;-68
2023/11/04 07:40:05;;;;;;;;;;;;;;;;;;5081500;28;19920;-68
2023/11/04 07:42:31;;;;;;;;;;;;;;;;;;5092471;28;19916;-68
2023/11/04 07:44:57;;;;;;;;;;;;;;;;;;5076229;28;19956;-68
2023/11/04 07:47:23;;;;;;;;;;;;;;;;;;5069344;28;21739;-68
2023/11/04 07:49:49;;;;;;;;;;;;;;;;;;5061491;28;20010;-67
2023/11/04 07:52:14;;;;;;;;;;;;;;;;;;5073404;28;19961;-68
2023/11/04 07:54:40;;;;;;;;;;;;;;;;;;5076330;28;19962;-67
2023/11/04 07:57:06;;;;;;;;;;;;;;;;;;5070286;28;20372;-68
2023/11/04 07:59:33;;;;;;;;;;;;;;;;;;5073227;28;19913;-67
2023/11/04 08:01:59;;;;;;;;;;;;;;;;;;5068636;28;19913;-68
2023/11/04 08:04:26;;;;;;;;;;;;;;;;;;5066852;28;19919;-67
2023/11/04 08:06:52;;;;;;;;;;;;;;;;;;5072410;28;20319;-68
2023/11/04 08:09:18;;;;;;;;;;;;;;;;;;5072007;28;19988;-68
2023/11/04 08:11:44;;;;;;;;;;;;;;;;;;5067194;28;19964;-67
2023/11/04 08:14:11;;;;;;;;;;;;;;;;;;5061367;28;19916;-67
2023/11/04 08:16:38;;;;;;;;;;;;;;;;;;5067026;28;19913;-68
2023/11/04 08:19:04;;;;;;;;;;;;;;;;;;5068524;28;19913;-67
2023/11/04 08:21:32;;;;;;;;;;;;;;;;;;5069114;28;20272;-68
2023/11/04 08:23:58;;;;;;;;;;;;;;;;;;5074536;28;19913;-67
2023/11/04 08:26:24;;;;;;;;;;;;;;;;;;5067937;28;19921;-68
2023/11/04 08:28:51;;;;;;;;;;;;;;;;;;5069562;28;19986;-67
2023/11/04 08:31:17;;;;;;;;;;;;;;;;;;5066995;28;19965;-68
2023/11/04 08:33:43;;;;;;;;;;;;;;;;;;5073613;28;20317;-65
2023/11/04 08:36:09;;;;;;;;;;;;;;;;;;5072237;28;19926;-65
2023/11/04 08:38:36;;;;;;;;;;;;;;;;;;5078613;28;19921;-65
2023/11/04 08:41:02;;;;;;;;;;;;;;;;;;5066961;28;19917;-65
2023/11/04 08:43:28;;;;;;;;;;;;;;;;;;5070005;28;19912;-68
2023/11/04 08:45:54;;;;;;;;;;;;;;;;;;5071900;28;20388;-68
2023/11/04 08:48:20;;;;;;;;;;;;;;;;;;5069623;28;19999;-68
2023/11/04 08:50:45;;;;;;;;;;;;;;;;;;5069992;28;20027;-68
2023/11/04 08:53:11;;;;;;;;;;;;;;;;;;5069830;28;20371;-68
2023/11/04 08:55:37;;;;;;;;;;;;;;;;;;5068581;28;19955;-67
2023/11/04 08:58:03;;;;;;;;;;;;;;;;;;5067508;28;20061;-68
2023/11/04 09:00:29;;;;;;;;;;;;;;;;;;5076595;28;20049;-67
2023/11/04 09:02:55;;;;;;;;;;;;;;;;;;5073916;28;19912;-68
2023/11/04 09:05:21;;;;;;;;;;;;;;;;;;5076935;28;19916;-67
2023/11/04 09:07:47;;;;;;;;;;;;;;;;;;5069154;28;19948;-67
2023/11/04 09:10:13;;;;;;;;;;;;;;;;;;5065442;28;19916;-67
2023/11/04 09:12:39;;;;;;;;;;;;;;;;;;5075846;28;19924;-68
2023/11/04 09:15:05;;;;;;;;;;;;;;;;;;5072626;28;20283;-67
2023/11/04 09:17:31;;;;;;;;;;;;;;;;;;5063125;28;19956;-67
2023/11/04 09:19:57;;;;;;;;;;;;;;;;;;5067132;28;20103;-68
2023/11/04 09:22:23;;;;;;;;;;;;;;;;;;5067932;28;19967;-67
2023/11/04 09:24:49;;;;;;;;;;;;;;;;;;5075005;28;20014;-68
2023/11/04 09:27:15;;;;;;;;;;;;;;;;;;5067403;28;20001;-68
2023/11/04 09:29:41;;;;;;;;;;;;;;;;;;5071442;28;19989;-68
2023/11/04 09:32:07;;;;;;;;;;;;;;;;;;5068772;28;19956;-68
2023/11/04 09:34:33;;;;;;;;;;;;;;;;;;5070562;28;20331;-68
2023/11/04 09:36:59;;;;;;;;;;;;;;;;;;5069348;28;19920;-68
2023/11/04 09:39:25;;;;;;;;;;;;;;;;;;5074394;28;19913;-68
2023/11/04 09:41:51;;;;;;;;;;;;;;;;;;5074716;28;19960;-68
2023/11/04 09:44:17;;;;;;;;;;;;;;;;;;5073928;28;19913;-63
2023/11/04 09:46:43;;;;;;;;;;;;;;;;;;5071712;28;20423;-63
2023/11/04 09:49:09;;;;;;;;;;;;;;;;;;5073702;28;19917;-63
2023/11/04 09:51:36;;;;;;;;;;;;;;;;;;5074809;28;20019;-64
2023/11/04 09:54:02;;;;;;;;;;;;;;;;;;5066495;28;19962;-65
2023/11/04 09:56:28;;;;;;;;;;;;;;;;;;5067715;28;19964;-65
2023/11/04 09:58:54;;;;;;;;;;;;;;;;;;5063702;28;20357;-64
2023/11/04 10:01:20;;;;;;;;;;;;;;;;;;5068539;28;19968;-64
2023/11/04 10:03:47;;;;;;;;;;;;;;;;;;5072316;28;20086;-64
2023/11/04 10:06:12;;;;;;;;;;;;;;;;;;5067610;28;19952;-65
2023/11/04 10:08:38;;;;;;;;;;;;;;;;;;5064264;28;19997;-64
2023/11/04 10:11:05;;;;;;;;;;;;;;;;;;5067707;28;19963;-65
2023/11/04 10:13:31;;;;;;;;;;;;;;;;;;5073571;28;19912;-65
2023/11/04 10:15:57;;;;;;;;;;;;;;;;;;5075141;28;20341;-64
2023/11/04 10:18:24;;;;;;;;;;;;;;;;;;5076323;28;19995;-66
2023/11/04 10:20:50;;;;;;;;;;;;;;;;;;5073604;28;19913;-65
2023/11/04 10:23:16;;;;;;;;;;;;;;;;;;5072462;28;19966;-65
2023/11/04 10:25:42;;;;;;;;;;;;;;;;;;5070441;28;19967;-65
2023/11/04 10:28:08;;;;;;;;;;;;;;;;;;5065525;28;20456;-65
2023/11/04 10:30:37;;;;;;;;;;;;;;;;;;5074072;28;19919;-65
2023/11/04 10:33:03;;;;;;;;;;;;;;;;;;5075763;28;19920;-65
2023/11/04 10:35:29;;;;;;;;;;;;;;;;;;5076733;28;20410;-65
2023/11/04 10:37:55;;;;;;;;;;;;;;;;;;5071556;28;19917;-65
2023/11/04 10:40:21;;;;;;;;;;;;;;;;;;5067053;28;20244;-65
2023/11/04 10:42:50;;;;;;;;;;;;;;;;;;5069633;28;19978;-65
2023/11/04 10:45:16;;;;;;;;;;;;;;;;;;5069651;28;19978;-65
2023/11/04 10:47:43;;;;;;;;;;;;;;;;;;5050398;28;20029;-65
2023/11/04 10:50:09;;;;;;;;;;;;;;;;;;5068487;28;19920;-65
2023/11/04 10:52:35;;;;;;;;;;;;;;;;;;5069979;28;20012;-66
2023/11/04 10:55:01;;;;;;;;;;;;;;;;;;5071219;28;19999;-64
2023/11/04 10:57:27;;;;;;;;;;;;;;;;;;5069796;28;19999;-64
2023/11/04 10:59:53;;;;;;;;;;;;;;;;;;5068836;28;20420;-63
2023/11/04 11:02:19;;;;;;;;;;;;;;;;;;5065473;28;19982;-64
2023/11/04 11:04:45;;;;;;;;;;;;;;;;;;5068050;28;20281;-66
2023/11/04 11:07:11;;;;;;;;;;;;;;;;;;5071572;28;19920;-67
2023/11/04 11:09:37;;;;;;;;;;;;;;;;;;5069543;28;20394;-67
2023/11/04 11:12:03;;;;;;;;;;;;;;;;;;5065629;28;19971;-66
2023/11/04 11:14:29;;;;;;;;;;;;;;;;;;5074828;28;19916;-66
2023/11/04 11:16:55;;;;;;;;;;;;;;;;;;5074338;28;19931;-66
2023/11/04 11:19:21;;;;;;;;;;;;;;;;;;5068850;28;20590;-66
2023/11/04 11:21:49;;;;;;;;;;;;;;;;;;5068376;28;20007;-66
2023/11/04 11:24:15;;;;;;;;;;;;;;;;;;5068761;28;19919;-66
2023/11/04 11:26:41;;;;;;;;;;;;;;;;;;5073369;28;19924;-66
2023/11/04 11:29:06;;;;;;;;;;;;;;;;;;5077611;28;19916;-66
2023/11/04 11:31:32;;;;;;;;;;;;;;;;;;5058496;28;20001;-66
2023/11/04 11:33:58;;;;;;;;;;;;;;;;;;5085249;28;19965;-66
2023/11/04 11:36:24;;;;;;;;;;;;;;;;;;5084928;28;19951;-66
2023/11/04 11:38:50;;;;;;;;;;;;;;;;;;5047966;28;20329;-66
2023/11/04 11:41:16;;;;;;;;;;;;;;;;;;5066790;28;19923;-68
2023/11/04 11:43:43;;;;;;;;;;;;;;;;;;5068027;28;19955;-67
2023/11/04 11:46:08;;;;;;;;;;;;;;;;;;5066565;28;19919;-66
2023/11/04 11:48:38;;;;;;;;;;;;;;;;;;5066539;28;19920;-67
2023/11/04 11:51:03;;;;;;;;;;;;;;;;;;5072885;28;19943;-67
2023/11/04 11:53:29;;;;;;;;;;;;;;;;;;5070453;28;19932;-66
2023/11/04 11:55:56;;;;;;;;;;;;;;;;;;5073996;28;20265;-66
2023/11/04 11:58:22;;;;;;;;;;;;;;;;;;5066134;28;19943;-66
2023/11/04 12:00:48;;;;;;;;;;;;;;;;;;5068026;28;20388;-66
2023/11/04 12:03:14;;;;;;;;;;;;;;;;;;5070776;28;19917;-63
2023/11/04 12:05:40;;;;;;;;;;;;;;;;;;5074051;28;19997;-61
2023/11/04 12:08:06;;;;;;;;;;;;;;;;;;5080561;28;19916;-61
2023/11/04 12:10:32;;;;;;;;;;;;;;;;;;5068883;28;19916;-61
2023/11/04 12:12:59;;;;;;;;;;;;;;;;;;5085101;28;20388;-66
2023/11/04 12:15:25;;;;;;;;;;;;;;;;;;5072862;28;19923;-67
2023/11/04 12:17:51;;;;;;;;;;;;;;;;;;5080615;28;19912;-66
2023/11/04 12:20:18;;;;;;;;;;;;;;;;;;5055611;28;19931;-66
2023/11/04 12:22:44;;;;;;;;;;;;;;;;;;5069315;28;19920;-65
2023/11/04 12:25:10;;;;;;;;;;;;;;;;;;5072086;28;20303;-66
2023/11/04 12:27:36;;;;;;;;;;;;;;;;;;5066670;28;19956;-67
2023/11/04 12:30:01;;;;;;;;;;;;;;;;;;5068270;28;19955;-66
2023/11/04 12:32:28;;;;;;;;;;;;;;;;;;5063639;28;20365;-66
2023/11/04 12:34:58;;;;;;;;;;;;;;;;;;5064004;28;20031;-66
2023/11/04 12:37:25;;;;;;;;;;;;;;;;;;5066873;28;19908;-67
2023/11/04 12:39:51;;;;;;;;;;;;;;;;;;5065859;28;19951;-66
2023/11/04 12:42:17;;;;;;;;;;;;;;;;;;5077238;28;19908;-66
2023/11/04 12:44:43;;;;;;;;;;;;;;;;;;5064468;28;20020;-66
2023/11/04 12:47:09;;;;;;;;;;;;;;;;;;5069574;28;19919;-65
2023/11/04 12:49:37;;;;;;;;;;;;;;;;;;5049460;28;20379;-68
2023/11/04 12:52:03;;;;;;;;;;;;;;;;;;5069413;28;20257;-66
2023/11/04 12:54:29;;;;;;;;;;;;;;;;;;5075452;28;20399;-66
2023/11/04 12:56:55;;;;;;;;;;;;;;;;;;5080148;28;19956;-68
2023/11/04 12:59:21;;;;;;;;;;;;;;;;;;5074177;28;19918;-66
2023/11/04 13:01:47;;;;;;;;;;;;;;;;;;5077655;28;19913;-68
2023/11/04 13:04:13;;;;;;;;;;;;;;;;;;5077711;28;19982;-68
2023/11/04 13:06:39;;;;;;;;;;;;;;;;;;5073080;28;19943;-66
2023/11/04 13:09:05;;;;;;;;;;;;;;;;;;5087662;28;20283;-67
2023/11/04 13:11:31;;;;;;;;;;;;;;;;;;5077463;28;20003;-68
2023/11/04 13:13:57;;;;;;;;;;;;;;;;;;5079801;28;20327;-65
2023/11/04 13:16:23;;;;;;;;;;;;;;;;;;5073945;28;19912;-65
2023/11/04 13:18:50;;;;;;;;;;;;;;;;;;5081352;28;20291;-66
2023/11/04 13:21:16;;;;;;;;;;;;;;;;;;5078485;28;19912;-64
2023/11/04 13:23:42;;;;;;;;;;;;;;;;;;5084760;28;20011;-67
2023/11/04 13:26:08;;;;;;;;;;;;;;;;;;5073602;28;20362;-67
2023/11/04 13:28:34;;;;;;;;;;;;;;;;;;5074574;28;20033;-67
2023/11/04 13:31:00;;;;;;;;;;;;;;;;;;5076210;28;19955;-67
2023/11/04 13:33:26;;;;;;;;;;;;;;;;;;5076239;28;19936;-67
2023/11/04 13:35:52;;;;;;;;;;;;;;;;;;5054652;28;19920;-65
2023/11/04 13:38:17;;;;;;;;;;;;;;;;;;5072373;28;19913;-68
2023/11/04 13:40:44;;;;;;;;;;;;;;;;;;5085899;28;19912;-66
2023/11/04 13:43:10;;;;;;;;;;;;;;;;;;5093488;28;20347;-68
2023/11/04 13:45:37;;;;;;;;;;;;;;;;;;5081127;28;19916;-67
2023/11/04 13:48:03;;;;;;;;;;;;;;;;;;5080602;28;19916;-66
2023/11/04 13:50:29;;;;;;;;;;;;;;;;;;5072185;28;19920;-68
2023/11/04 13:52:55;;;;;;;;;;;;;;;;;;5068028;28;19960;-66
2023/11/04 13:55:21;;;;;;;;;;;;;;;;;;5075402;28;20000;-68
2023/11/04 13:57:47;;;;;;;;;;;;;;;;;;5073179;28;20102;-66
2023/11/04 14:00:13;;;;;;;;;;;;;;;;;;5073089;28;19963;-67
2023/11/04 14:02:39;;;;;;;;;;;;;;;;;;5065526;28;19948;-68
2023/11/04 14:05:05;;;;;;;;;;;;;;;;;;5069461;28;19934;-68
2023/11/04 14:07:31;;;;;;;;;;;;;;;;;;5066990;28;20007;-68
2023/11/04 14:09:57;;;;;;;;;;;;;;;;;;5063716;28;19962;-67
2023/11/04 14:12:23;;;;;;;;;;;;;;;;;;5080487;28;20019;-67
2023/11/04 14:14:49;;;;;;;;;;;;;;;;;;5074562;28;20346;-68
2023/11/04 14:17:15;;;;;;;;;;;;;;;;;;5072914;28;19920;-68
2023/11/04 14:19:41;;;;;;;;;;;;;;;;;;5071954;28;19958;-67
2023/11/04 14:22:07;;;;;;;;;;;;;;;;;;5078906;28;19955;-68
2023/11/04 14:24:34;;;;;;;;;;;;;;;;;;5082805;28;19912;-67
2023/11/04 14:27:00;;;;;;;;;;;;;;;;;;5072784;28;19920;-68
2023/11/04 14:29:26;;;;;;;;;;;;;;;;;;5083655;28;19999;-68
2023/11/04 14:31:51;;;;;;;;;;;;;;;;;;5072640;28;20306;-68
2023/11/04 14:34:18;;;;;;;;;;;;;;;;;;5083145;28;19924;-64
2023/11/04 14:36:44;;;;;;;;;;;;;;;;;;5072823;28;19928;-63
2023/11/04 14:39:10;;;;;;;;;;;;;;;;;;5072908;28;19952;-65
2023/11/04 14:41:35;;;;;;;;;;;;;;;;;;5074030;28;20400;-67
2023/11/04 14:44:02;;;;;;;;;;;;;;;;;;5087973;28;19995;-67
2023/11/04 14:46:28;;;;;;;;;;;;;;;;;;5071685;28;20372;-67
2023/11/04 14:48:54;;;;;;;;;;;;;;;;;;5065746;28;19912;-66
2023/11/04 14:51:21;;;;;;;;;;;;;;;;;;5074385;28;20382;-68
2023/11/04 14:53:47;;;;;;;;;;;;;;;;;;5073349;28;19917;-67
2023/11/04 14:56:13;;;;;;;;;;;;;;;;;;5075962;28;20332;-67
2023/11/04 14:58:39;;;;;;;;;;;;;;;;;;5079758;28;19918;-67
2023/11/04 15:01:05;;;;;;;;;;;;;;;;;;5071979;28;19940;-67
2023/11/04 15:03:31;;;;;;;;;;;;;;;;;;5075215;28;19920;-67
2023/11/04 15:05:57;;;;;;;;;;;;;;;;;;5073100;28;19959;-67
2023/11/04 15:08:23;;;;;;;;;;;;;;;;;;5064692;28;19913;-67
2023/11/04 15:10:49;;;;;;;;;;;;;;;;;;5079695;28;20007;-67
2023/11/04 15:13:15;;;;;;;;;;;;;;;;;;5087120;28;19941;-67
2023/11/04 15:15:41;;;;;;;;;;;;;;;;;;5065029;28;20312;-67
2023/11/04 15:18:07;;;;;;;;;;;;;;;;;;5090561;28;19908;-68
2023/11/04 15:20:33;;;;;;;;;;;;;;;;;;5081600;28;19947;-67
2023/11/04 15:22:59;;;;;;;;;;;;;;;;;;5073209;28;19966;-67
2023/11/04 15:25:25;;;;;;;;;;;;;;;;;;5066967;28;19971;-67
2023/11/04 15:27:51;;;;;;;;;;;;;;;;;;5073015;28;19912;-67
2023/11/04 15:30:17;;;;;;;;;;;;;;;;;;5084131;28;19916;-67
2023/11/04 15:32:43;;;;;;;;;;;;;;;;;;5080666;28;19920;-68
2023/11/04 15:35:09;;;;;;;;;;;;;;;;;;5085370;28;20418;-67
2023/11/04 15:37:35;;;;;;;;;;;;;;;;;;5084140;28;19908;-68
2023/11/04 15:40:01;;;;;;;;;;;;;;;;;;5075950;28;20037;-68
2023/11/04 15:42:27;;;;;;;;;;;;;;;;;;5070901;28;20007;-68
2023/11/04 15:44:53;;;;;;;;;;;;;;;;;;5074974;28;19919;-67
2023/11/04 15:47:18;;;;;;;;;;;;;;;;;;5072769;28;19923;-67
2023/11/04 15:49:44;;;;;;;;;;;;;;;;;;5077093;28;19913;-67
2023/11/04 15:52:11;;;;;;;;;;;;;;;;;;5070468;28;19963;-68
2023/11/04 15:54:37;;;;;;;;;;;;;;;;;;5086547;28;19920;-68
2023/11/04 15:57:03;;;;;;;;;;;;;;;;;;5066787;28;19919;-68
2023/11/04 15:59:28;;;;;;;;;;;;;;;;;;5077029;28;20372;-68
2023/11/04 16:01:54;;;;;;;;;;;;;;;;;;5075183;28;19913;-68
2023/11/04 16:04:20;;;;;;;;;;;;;;;;;;5078024;28;19920;-65
2023/11/04 16:06:46;;;;;;;;;;;;;;;;;;5085803;28;20320;-68
2023/11/04 16:09:13;;;;;;;;;;;;;;;;;;5081664;28;20466;-68
2023/11/04 16:11:39;;;;;;;;;;;;;;;;;;5086173;28;19912;-68
2023/11/04 16:14:05;;;;;;;;;;;;;;;;;;5075541;28;19967;-67
2023/11/04 16:16:31;;;;;;;;;;;;;;;;;;5072243;28;19920;-68
2023/11/04 16:18:57;;;;;;;;;;;;;;;;;;5069568;28;20013;-68
2023/11/04 16:21:23;;;;;;;;;;;;;;;;;;5071199;28;19913;-68
2023/11/04 16:23:49;;;;;;;;;;;;;;;;;;5074075;28;19917;-67
2023/11/04 16:26:16;;;;;;;;;;;;;;;;;;5077472;28;19998;-68
2023/11/04 16:28:42;;;;;;;;;;;;;;;;;;5079211;28;20277;-68
2023/11/04 16:31:09;;;;;;;;;;;;;;;;;;5074586;28;19912;-68
2023/11/04 16:33:36;;;;;;;;;;;;;;;;;;5071041;28;19936;-67
2023/11/04 16:36:02;;;;;;;;;;;;;;;;;;5073696;28;20375;-68
2023/11/04 16:38:28;;;;;;;;;;;;;;;;;;5071255;28;20326;-68